sensor_id;sensor_type;location;lat;lon;timestamp;temperature;humidity
15888;DHT22;56032;51.324;12.376;2022-11-15T00:01:25;7.60;99.90
15888;DHT22;56032;51.324;12.376;2022-11-15T00:03:53;7.60;99.90
15888;DHT22;56032;51.324;12.376;2022-11-15T00:06:22;7.60;99.90
15888;DHT22;56032;51.324;12.376;2022-11-15T00:08:50;7.60;99.90
15888;DHT22;56032;51.324;12.376;2022-11-15T00:11:19;7.60;99.90
15888;DHT22;56032;51.324;12.376;2022-11-15T00:13:47;7.60;99.90
15888;DHT22;56032;51.324;12.376;2022-11-15T00:16:17;7.60;99.90
15888;DHT22;56032;51.324;12.376;2022-11-15T00:18:45;7.60;99.90
15888;DHT22;56032;51.324;12.376;2022-11-15T00:21:17;7.60;99.90
15888;DHT22;56032;51.324;12.376;2022-11-15T00:23:46;7.60;99.90
15888;DHT22;56032;51.324;12.376;2022-11-15T00:26:14;7.60;99.90
15888;DHT22;56032;51.324;12.376;2022-11-15T00:28:43;7.70;99.90
15888;DHT22;56032;51.324;12.376;2022-11-15T00:31:13;7.70;99.90
15888;DHT22;56032;51.324;12.376;2022-11-15T00:33:44;7.70;99.90
15888;DHT22;56032;51.324;12.376;2022-11-15T00:36:12;7.70;99.90
15888;DHT22;56032;51.324;12.376;2022-11-15T00:38:41;7.80;99.90
15888;DHT22;56032;51.324;12.376;2022-11-15T00:41:09;7.80;99.90
15888;DHT22;56032;51.324;12.376;2022-11-15T00:43:38;7.80;99.90
15888;DHT22;56032;51.324;12.376;2022-11-15T00:46:10;7.90;99.90
15888;DHT22;56032;51.324;12.376;2022-11-15T00:48:39;7.90;99.90
15888;DHT22;56032;51.324;12.376;2022-11-15T00:51:08;7.90;99.90
15888;DHT22;56032;51.324;12.376;2022-11-15T00:53:37;7.90;99.90
15888;DHT22;56032;51.324;12.376;2022-11-15T00:56:05;8.00;99.90
15888;DHT22;56032;51.324;12.376;2022-11-15T00:58:34;8.00;99.90
15888;DHT22;56032;51.324;12.376;2022-11-15T01:01:07;8.00;99.90
15888;DHT22;56032;51.324;12.376;2022-11-15T01:03:36;8.00;99.90
15888;DHT22;56032;51.324;12.376;2022-11-15T01:06:05;8.00;99.90
15888;DHT22;56032;51.324;12.376;2022-11-15T01:08:35;8.00;99.90
15888;DHT22;56032;51.324;12.376;2022-11-15T01:11:05;7.90;99.90
15888;DHT22;56032;51.324;12.376;2022-11-15T01:13:33;7.90;99.90
15888;DHT22;56032;51.324;12.376;2022-11-15T01:16:05;7.90;99.90
15888;DHT22;56032;51.324;12.376;2022-11-15T01:18:34;7.90;99.90
15888;DHT22;56032;51.324;12.376;2022-11-15T01:21:06;7.90;99.90
15888;DHT22;56032;51.324;12.376;2022-11-15T01:23:36;7.90;99.90
15888;DHT22;56032;51.324;12.376;2022-11-15T01:26:05;7.90;99.90
15888;DHT22;56032;51.324;12.376;2022-11-15T01:28:35;7.90;99.90
15888;DHT22;56032;51.324;12.376;2022-11-15T01:31:04;7.90;99.90
15888;DHT22;56032;51.324;12.376;2022-11-15T01:33:34;7.90;99.90
15888;DHT22;56032;51.324;12.376;2022-11-15T01:36:03;7.90;99.90
15888;DHT22;56032;51.324;12.376;2022-11-15T01:38:31;7.90;99.90
15888;DHT22;56032;51.324;12.376;2022-11-15T01:41:01;7.90;99.90
15888;DHT22;56032;51.324;12.376;2022-11-15T01:43:30;7.90;99.90
15888;DHT22;56032;51.324;12.376;2022-11-15T01:46:00;7.90;99.90
15888;DHT22;56032;51.324;12.376;2022-11-15T01:48:31;7.90;99.90
15888;DHT22;56032;51.324;12.376;2022-11-15T01:51:01;7.90;99.90
15888;DHT22;56032;51.324;12.376;2022-11-15T01:53:30;7.90;99.90
15888;DHT22;56032;51.324;12.376;2022-11-15T01:56:03;7.90;99.90
15888;DHT22;56032;51.324;12.376;2022-11-15T01:58:33;7.90;99.90
15888;DHT22;56032;51.324;12.376;2022-11-15T02:01:02;7.90;99.90
15888;DHT22;56032;51.324;12.376;2022-11-15T02:03:32;7.90;99.90
15888;DHT22;56032;51.324;12.376;2022-11-15T02:06:01;7.90;99.90
15888;DHT22;56032;51.324;12.376;2022-11-15T02:08:31;7.90;99.90
15888;DHT22;56032;51.324;12.376;2022-11-15T02:11:00;7.90;99.90
15888;DHT22;56032;51.324;12.376;2022-11-15T02:13:29;7.90;99.90
15888;DHT22;56032;51.324;12.376;2022-11-15T02:16:00;7.90;99.90
15888;DHT22;56032;51.324;12.376;2022-11-15T02:18:32;7.90;99.90
15888;DHT22;56032;51.324;12.376;2022-11-15T02:21:07;7.90;99.90
15888;DHT22;56032;51.324;12.376;2022-11-15T02:29:08;7.80;99.90
15888;DHT22;56032;51.324;12.376;2022-11-15T02:31:40;7.80;99.90
15888;DHT22;56032;51.324;12.376;2022-11-15T02:34:15;7.80;99.90
15888;DHT22;56032;51.324;12.376;2022-11-15T02:36:49;7.80;99.90
15888;DHT22;56032;51.324;12.376;2022-11-15T02:39:24;7.80;99.90
15888;DHT22;56032;51.324;12.376;2022-11-15T02:41:57;7.80;99.90
15888;DHT22;56032;51.324;12.376;2022-11-15T02:44:26;7.80;99.90
15888;DHT22;56032;51.324;12.376;2022-11-15T02:46:58;7.90;99.90
15888;DHT22;56032;51.324;12.376;2022-11-15T02:49:43;7.90;99.90
15888;DHT22;56032;51.324;12.376;2022-11-15T02:52:14;7.90;99.90
15888;DHT22;56032;51.324;12.376;2022-11-15T02:54:43;7.90;99.90
15888;DHT22;56032;51.324;12.376;2022-11-15T02:57:12;7.90;99.90
15888;DHT22;56032;51.324;12.376;2022-11-15T02:59:44;7.90;99.90
15888;DHT22;56032;51.324;12.376;2022-11-15T03:02:20;7.90;99.90
15888;DHT22;56032;51.324;12.376;2022-11-15T03:04:53;7.90;99.90
15888;DHT22;56032;51.324;12.376;2022-11-15T03:07:23;7.90;99.90
15888;DHT22;56032;51.324;12.376;2022-11-15T03:09:54;7.90;99.90
15888;DHT22;56032;51.324;12.376;2022-11-15T03:12:26;7.90;99.90
15888;DHT22;56032;51.324;12.376;2022-11-15T03:14:56;7.90;99.90
15888;DHT22;56032;51.324;12.376;2022-11-15T03:17:28;8.00;99.90
15888;DHT22;56032;51.324;12.376;2022-11-15T03:19:58;7.90;99.90
15888;DHT22;56032;51.324;12.376;2022-11-15T03:22:28;8.00;99.90
15888;DHT22;56032;51.324;12.376;2022-11-15T03:24:59;7.90;99.90
15888;DHT22;56032;51.324;12.376;2022-11-15T03:27:30;7.90;99.90
15888;DHT22;56032;51.324;12.376;2022-11-15T03:30:00;7.90;99.90
15888;DHT22;56032;51.324;12.376;2022-11-15T03:32:34;7.90;99.90
15888;DHT22;56032;51.324;12.376;2022-11-15T03:35:04;7.90;99.90
15888;DHT22;56032;51.324;12.376;2022-11-15T03:37:34;7.90;99.90
15888;DHT22;56032;51.324;12.376;2022-11-15T03:40:04;7.80;99.90
15888;DHT22;56032;51.324;12.376;2022-11-15T03:42:34;7.80;99.90
15888;DHT22;56032;51.324;12.376;2022-11-15T03:45:08;7.80;99.90
15888;DHT22;56032;51.324;12.376;2022-11-15T03:47:41;7.80;99.90
15888;DHT22;56032;51.324;12.376;2022-11-15T03:50:12;7.80;99.90
15888;DHT22;56032;51.324;12.376;2022-11-15T03:52:41;7.80;99.90
15888;DHT22;56032;51.324;12.376;2022-11-15T03:55:10;7.80;99.90
15888;DHT22;56032;51.324;12.376;2022-11-15T03:57:39;7.80;99.90
15888;DHT22;56032;51.324;12.376;2022-11-15T04:00:08;7.80;99.90
15888;DHT22;56032;51.324;12.376;2022-11-15T04:02:36;7.80;99.90
15888;DHT22;56032;51.324;12.376;2022-11-15T04:05:07;7.90;99.90
15888;DHT22;56032;51.324;12.376;2022-11-15T04:07:35;7.90;99.90
15888;DHT22;56032;51.324;12.376;2022-11-15T04:10:05;7.90;99.90
15888;DHT22;56032;51.324;12.376;2022-11-15T04:12:34;7.90;99.90
15888;DHT22;56032;51.324;12.376;2022-11-15T04:15:03;7.90;99.90
15888;DHT22;56032;51.324;12.376;2022-11-15T04:17:35;7.90;99.90
15888;DHT22;56032;51.324;12.376;2022-11-15T04:20:05;7.90;99.90
15888;DHT22;56032;51.324;12.376;2022-11-15T04:22:53;7.90;99.90
15888;DHT22;56032;51.324;12.376;2022-11-15T04:25:39;7.90;99.90
15888;DHT22;56032;51.324;12.376;2022-11-15T04:28:08;8.00;99.90
15888;DHT22;56032;51.324;12.376;2022-11-15T04:30:36;8.00;99.90
15888;DHT22;56032;51.324;12.376;2022-11-15T04:33:04;8.00;99.90
15888;DHT22;56032;51.324;12.376;2022-11-15T04:35:33;8.00;99.90
15888;DHT22;56032;51.324;12.376;2022-11-15T04:38:03;8.00;99.90
15888;DHT22;56032;51.324;12.376;2022-11-15T04:40:31;7.90;99.90
15888;DHT22;56032;51.324;12.376;2022-11-15T04:42:59;8.00;99.90
15888;DHT22;56032;51.324;12.376;2022-11-15T04:45:30;8.00;99.90
15888;DHT22;56032;51.324;12.376;2022-11-15T04:47:58;7.90;99.90
15888;DHT22;56032;51.324;12.376;2022-11-15T04:50:26;7.90;99.90
15888;DHT22;56032;51.324;12.376;2022-11-15T04:52:55;7.90;99.90
15888;DHT22;56032;51.324;12.376;2022-11-15T04:55:25;7.90;99.90
15888;DHT22;56032;51.324;12.376;2022-11-15T04:57:57;7.90;99.90
15888;DHT22;56032;51.324;12.376;2022-11-15T05:00:25;7.90;99.90
15888;DHT22;56032;51.324;12.376;2022-11-15T05:02:54;7.90;99.90
15888;DHT22;56032;51.324;12.376;2022-11-15T05:05:40;7.90;99.90
15888;DHT22;56032;51.324;12.376;2022-11-15T05:08:08;7.90;99.90
15888;DHT22;56032;51.324;12.376;2022-11-15T05:10:38;7.90;99.90
15888;DHT22;56032;51.324;12.376;2022-11-15T05:13:07;7.80;99.90
15888;DHT22;56032;51.324;12.376;2022-11-15T05:15:35;7.80;99.90
15888;DHT22;56032;51.324;12.376;2022-11-15T05:18:03;7.80;99.90
15888;DHT22;56032;51.324;12.376;2022-11-15T05:23:18;7.80;99.90
15888;DHT22;56032;51.324;12.376;2022-11-15T05:25:48;7.80;99.90
15888;DHT22;56032;51.324;12.376;2022-11-15T05:28:16;7.80;99.90
15888;DHT22;56032;51.324;12.376;2022-11-15T05:30:45;7.80;99.90
15888;DHT22;56032;51.324;12.376;2022-11-15T05:33:14;7.80;99.90
15888;DHT22;56032;51.324;12.376;2022-11-15T05:35:42;7.80;99.90
15888;DHT22;56032;51.324;12.376;2022-11-15T05:38:13;7.80;99.90
15888;DHT22;56032;51.324;12.376;2022-11-15T05:40:41;7.80;99.90
15888;DHT22;56032;51.324;12.376;2022-11-15T05:43:11;7.80;99.90
15888;DHT22;56032;51.324;12.376;2022-11-15T05:45:39;7.70;99.90
15888;DHT22;56032;51.324;12.376;2022-11-15T05:48:08;7.80;99.90
15888;DHT22;56032;51.324;12.376;2022-11-15T05:50:38;7.80;99.90
15888;DHT22;56032;51.324;12.376;2022-11-15T05:53:07;7.80;99.90
15888;DHT22;56032;51.324;12.376;2022-11-15T05:55:36;7.80;99.90
15888;DHT22;56032;51.324;12.376;2022-11-15T05:58:05;7.80;99.90
15888;DHT22;56032;51.324;12.376;2022-11-15T06:00:35;7.80;99.90
15888;DHT22;56032;51.324;12.376;2022-11-15T06:03:03;7.80;99.90
15888;DHT22;56032;51.324;12.376;2022-11-15T06:05:32;7.80;99.90
15888;DHT22;56032;51.324;12.376;2022-11-15T06:08:00;7.80;99.90
15888;DHT22;56032;51.324;12.376;2022-11-15T06:10:32;7.80;99.90
15888;DHT22;56032;51.324;12.376;2022-11-15T06:13:01;7.80;99.90
15888;DHT22;56032;51.324;12.376;2022-11-15T06:15:30;7.80;99.90
15888;DHT22;56032;51.324;12.376;2022-11-15T06:18:01;7.80;99.90
15888;DHT22;56032;51.324;12.376;2022-11-15T06:20:30;7.80;99.90
15888;DHT22;56032;51.324;12.376;2022-11-15T06:22:59;7.80;99.90
15888;DHT22;56032;51.324;12.376;2022-11-15T06:25:28;7.80;99.90
15888;DHT22;56032;51.324;12.376;2022-11-15T06:27:57;7.80;99.90
15888;DHT22;56032;51.324;12.376;2022-11-15T06:30:26;7.80;99.90
15888;DHT22;56032;51.324;12.376;2022-11-15T06:32:59;7.80;99.90
15888;DHT22;56032;51.324;12.376;2022-11-15T06:35:30;7.70;99.90
15888;DHT22;56032;51.324;12.376;2022-11-15T06:38:01;7.70;99.90
15888;DHT22;56032;51.324;12.376;2022-11-15T06:40:30;7.70;99.90
15888;DHT22;56032;51.324;12.376;2022-11-15T06:43:00;7.70;99.90
15888;DHT22;56032;51.324;12.376;2022-11-15T06:45:29;7.70;99.90
15888;DHT22;56032;51.324;12.376;2022-11-15T06:47:58;7.70;99.90
15888;DHT22;56032;51.324;12.376;2022-11-15T06:50:27;7.60;99.90
15888;DHT22;56032;51.324;12.376;2022-11-15T06:53:01;7.70;99.90
15888;DHT22;56032;51.324;12.376;2022-11-15T06:55:30;7.60;99.90
15888;DHT22;56032;51.324;12.376;2022-11-15T06:57:59;7.60;99.90
15888;DHT22;56032;51.324;12.376;2022-11-15T07:00:27;7.70;99.90
15888;DHT22;56032;51.324;12.376;2022-11-15T07:02:59;7.70;99.90
15888;DHT22;56032;51.324;12.376;2022-11-15T07:05:28;7.70;99.90
15888;DHT22;56032;51.324;12.376;2022-11-15T07:07:56;7.70;99.90
15888;DHT22;56032;51.324;12.376;2022-11-15T07:10:27;7.70;99.90
15888;DHT22;56032;51.324;12.376;2022-11-15T07:12:56;7.80;99.90
15888;DHT22;56032;51.324;12.376;2022-11-15T07:15:25;7.90;99.90
15888;DHT22;56032;51.324;12.376;2022-11-15T07:17:54;7.90;99.90
15888;DHT22;56032;51.324;12.376;2022-11-15T07:20:23;8.00;99.90
15888;DHT22;56032;51.324;12.376;2022-11-15T07:22:51;8.00;99.90
15888;DHT22;56032;51.324;12.376;2022-11-15T07:25:29;8.10;99.90
15888;DHT22;56032;51.324;12.376;2022-11-15T07:27:58;8.20;99.90
15888;DHT22;56032;51.324;12.376;2022-11-15T07:30:27;8.20;99.90
15888;DHT22;56032;51.324;12.376;2022-11-15T07:32:56;8.30;99.90
15888;DHT22;56032;51.324;12.376;2022-11-15T07:35:27;8.40;99.90
15888;DHT22;56032;51.324;12.376;2022-11-15T07:37:56;8.50;99.90
15888;DHT22;56032;51.324;12.376;2022-11-15T07:40:26;8.60;99.90
15888;DHT22;56032;51.324;12.376;2022-11-15T07:43:00;8.60;99.90
15888;DHT22;56032;51.324;12.376;2022-11-15T07:45:28;8.60;99.90
15888;DHT22;56032;51.324;12.376;2022-11-15T07:47:57;8.70;99.90
15888;DHT22;56032;51.324;12.376;2022-11-15T07:50:26;8.80;99.90
15888;DHT22;56032;51.324;12.376;2022-11-15T07:52:57;8.90;99.90
15888;DHT22;56032;51.324;12.376;2022-11-15T07:55:26;9.00;99.90
15888;DHT22;56032;51.324;12.376;2022-11-15T07:58:01;9.00;99.90
15888;DHT22;56032;51.324;12.376;2022-11-15T08:00:30;9.10;99.90
15888;DHT22;56032;51.324;12.376;2022-11-15T08:03:03;9.20;99.90
15888;DHT22;56032;51.324;12.376;2022-11-15T08:05:31;9.20;99.90
15888;DHT22;56032;51.324;12.376;2022-11-15T08:08:00;9.30;99.90
15888;DHT22;56032;51.324;12.376;2022-11-15T08:10:28;9.30;99.90
15888;DHT22;56032;51.324;12.376;2022-11-15T08:13:05;9.40;99.90
15888;DHT22;56032;51.324;12.376;2022-11-15T08:15:34;9.50;99.90
15888;DHT22;56032;51.324;12.376;2022-11-15T08:18:04;9.60;99.90
15888;DHT22;56032;51.324;12.376;2022-11-15T08:20:32;9.70;99.90
15888;DHT22;56032;51.324;12.376;2022-11-15T08:23:02;9.70;99.90
15888;DHT22;56032;51.324;12.376;2022-11-15T08:25:31;9.80;99.90
15888;DHT22;56032;51.324;12.376;2022-11-15T08:28:01;9.80;99.90
15888;DHT22;56032;51.324;12.376;2022-11-15T08:30:33;9.90;99.90
15888;DHT22;56032;51.324;12.376;2022-11-15T08:33:03;10.00;99.90
15888;DHT22;56032;51.324;12.376;2022-11-15T08:35:31;10.00;99.90
15888;DHT22;56032;51.324;12.376;2022-11-15T08:38:00;10.10;99.90
15888;DHT22;56032;51.324;12.376;2022-11-15T08:40:29;10.20;99.90
15888;DHT22;56032;51.324;12.376;2022-11-15T08:43:01;10.30;99.90
15888;DHT22;56032;51.324;12.376;2022-11-15T08:45:31;10.40;99.90
15888;DHT22;56032;51.324;12.376;2022-11-15T08:48:01;10.50;99.90
15888;DHT22;56032;51.324;12.376;2022-11-15T08:50:30;10.50;99.90
15888;DHT22;56032;51.324;12.376;2022-11-15T08:53:03;10.60;99.90
15888;DHT22;56032;51.324;12.376;2022-11-15T08:55:32;10.70;99.90
15888;DHT22;56032;51.324;12.376;2022-11-15T08:58:00;10.70;99.90
15888;DHT22;56032;51.324;12.376;2022-11-15T09:00:30;10.80;99.90
15888;DHT22;56032;51.324;12.376;2022-11-15T09:02:59;10.90;99.90
15888;DHT22;56032;51.324;12.376;2022-11-15T09:05:27;11.00;99.90
15888;DHT22;56032;51.324;12.376;2022-11-15T09:07:55;11.00;99.90
15888;DHT22;56032;51.324;12.376;2022-11-15T09:10:24;11.10;99.90
15888;DHT22;56032;51.324;12.376;2022-11-15T09:12:52;11.30;99.90
15888;DHT22;56032;51.324;12.376;2022-11-15T09:15:21;11.40;99.90
15888;DHT22;56032;51.324;12.376;2022-11-15T09:17:51;11.40;99.90
15888;DHT22;56032;51.324;12.376;2022-11-15T09:20:20;11.50;99.90
15888;DHT22;56032;51.324;12.376;2022-11-15T09:22:49;11.50;99.90
15888;DHT22;56032;51.324;12.376;2022-11-15T09:25:17;11.60;99.90
15888;DHT22;56032;51.324;12.376;2022-11-15T09:27:45;11.70;99.90
15888;DHT22;56032;51.324;12.376;2022-11-15T09:30:14;11.80;99.90
15888;DHT22;56032;51.324;12.376;2022-11-15T09:32:42;11.80;99.90
15888;DHT22;56032;51.324;12.376;2022-11-15T09:35:12;11.90;99.90
15888;DHT22;56032;51.324;12.376;2022-11-15T09:37:41;12.00;99.90
15888;DHT22;56032;51.324;12.376;2022-11-15T09:40:09;12.10;99.90
15888;DHT22;56032;51.324;12.376;2022-11-15T09:42:44;12.10;99.90
15888;DHT22;56032;51.324;12.376;2022-11-15T09:45:17;12.30;99.90
15888;DHT22;56032;51.324;12.376;2022-11-15T09:48:00;12.30;99.90
15888;DHT22;56032;51.324;12.376;2022-11-15T09:50:34;12.40;99.90
15888;DHT22;56032;51.324;12.376;2022-11-15T09:53:04;12.50;99.90
15888;DHT22;56032;51.324;12.376;2022-11-15T09:55:36;12.50;99.90
15888;DHT22;56032;51.324;12.376;2022-11-15T09:58:10;12.60;99.90
15888;DHT22;56032;51.324;12.376;2022-11-15T10:00:44;12.60;99.90
15888;DHT22;56032;51.324;12.376;2022-11-15T10:03:14;12.60;99.90
15888;DHT22;56032;51.324;12.376;2022-11-15T10:05:45;12.60;99.90
15888;DHT22;56032;51.324;12.376;2022-11-15T10:08:22;12.70;99.90
15888;DHT22;56032;51.324;12.376;2022-11-15T10:10:55;12.60;99.90
15888;DHT22;56032;51.324;12.376;2022-11-15T10:13:44;12.70;99.90
15888;DHT22;56032;51.324;12.376;2022-11-15T10:16:17;12.80;99.90
15888;DHT22;56032;51.324;12.376;2022-11-15T10:18:52;12.70;99.90
15888;DHT22;56032;51.324;12.376;2022-11-15T10:21:28;12.80;99.90
15888;DHT22;56032;51.324;12.376;2022-11-15T10:23:57;12.90;99.90
15888;DHT22;56032;51.324;12.376;2022-11-15T10:26:26;12.90;99.90
15888;DHT22;56032;51.324;12.376;2022-11-15T10:28:55;13.00;99.90
15888;DHT22;56032;51.324;12.376;2022-11-15T10:31:25;13.10;99.90
15888;DHT22;56032;51.324;12.376;2022-11-15T10:33:57;13.20;99.90
15888;DHT22;56032;51.324;12.376;2022-11-15T10:36:28;13.20;99.90
15888;DHT22;56032;51.324;12.376;2022-11-15T10:38:57;13.30;99.90
15888;DHT22;56032;51.324;12.376;2022-11-15T10:41:30;13.40;99.90
15888;DHT22;56032;51.324;12.376;2022-11-15T10:44:03;13.40;99.90
15888;DHT22;56032;51.324;12.376;2022-11-15T10:46:31;13.40;99.90
15888;DHT22;56032;51.324;12.376;2022-11-15T10:49:16;13.40;99.90
15888;DHT22;56032;51.324;12.376;2022-11-15T10:51:46;13.40;99.90
15888;DHT22;56032;51.324;12.376;2022-11-15T10:54:17;13.50;99.90
15888;DHT22;56032;51.324;12.376;2022-11-15T10:56:48;13.60;99.90
15888;DHT22;56032;51.324;12.376;2022-11-15T10:59:19;13.60;99.90
15888;DHT22;56032;51.324;12.376;2022-11-15T11:01:49;13.70;99.90
15888;DHT22;56032;51.324;12.376;2022-11-15T11:04:18;13.70;99.90
15888;DHT22;56032;51.324;12.376;2022-11-15T11:06:48;13.80;99.90
15888;DHT22;56032;51.324;12.376;2022-11-15T11:09:22;13.80;99.90
15888;DHT22;56032;51.324;12.376;2022-11-15T11:11:51;13.80;99.90
15888;DHT22;56032;51.324;12.376;2022-11-15T11:14:20;13.80;99.90
15888;DHT22;56032;51.324;12.376;2022-11-15T11:16:50;13.80;99.90
15888;DHT22;56032;51.324;12.376;2022-11-15T11:22:11;13.90;99.90
15888;DHT22;56032;51.324;12.376;2022-11-15T11:24:44;14.00;99.90
15888;DHT22;56032;51.324;12.376;2022-11-15T11:27:20;14.00;99.90
15888;DHT22;56032;51.324;12.376;2022-11-15T11:29:58;14.00;99.90
15888;DHT22;56032;51.324;12.376;2022-11-15T11:32:37;14.10;99.90
15888;DHT22;56032;51.324;12.376;2022-11-15T11:35:09;14.10;99.90
15888;DHT22;56032;51.324;12.376;2022-11-15T11:37:43;14.10;99.90
15888;DHT22;56032;51.324;12.376;2022-11-15T11:40:16;14.20;99.90
15888;DHT22;56032;51.324;12.376;2022-11-15T11:42:47;14.20;99.90
15888;DHT22;56032;51.324;12.376;2022-11-15T11:45:23;14.30;99.90
15888;DHT22;56032;51.324;12.376;2022-11-15T11:47:54;14.20;99.90
15888;DHT22;56032;51.324;12.376;2022-11-15T11:50:26;14.30;99.90
15888;DHT22;56032;51.324;12.376;2022-11-15T11:52:58;14.20;99.90
15888;DHT22;56032;51.324;12.376;2022-11-15T11:55:31;14.30;99.90
15888;DHT22;56032;51.324;12.376;2022-11-15T11:58:04;14.30;99.90
15888;DHT22;56032;51.324;12.376;2022-11-15T12:00:34;14.40;99.90
15888;DHT22;56032;51.324;12.376;2022-11-15T12:03:05;14.40;99.90
15888;DHT22;56032;51.324;12.376;2022-11-15T12:05:37;14.40;99.90
15888;DHT22;56032;51.324;12.376;2022-11-15T12:08:15;14.50;99.90
15888;DHT22;56032;51.324;12.376;2022-11-15T12:10:48;14.60;99.90
15888;DHT22;56032;51.324;12.376;2022-11-15T12:13:19;14.60;99.90
15888;DHT22;56032;51.324;12.376;2022-11-15T12:15:50;14.60;99.90
15888;DHT22;56032;51.324;12.376;2022-11-15T12:18:20;14.60;99.90
15888;DHT22;56032;51.324;12.376;2022-11-15T12:20:50;14.60;99.90
15888;DHT22;56032;51.324;12.376;2022-11-15T12:23:23;14.60;99.90
15888;DHT22;56032;51.324;12.376;2022-11-15T12:25:58;14.70;99.90
15888;DHT22;56032;51.324;12.376;2022-11-15T12:28:31;14.80;99.90
15888;DHT22;56032;51.324;12.376;2022-11-15T12:31:03;14.80;99.90
15888;DHT22;56032;51.324;12.376;2022-11-15T12:33:34;14.70;99.90
15888;DHT22;56032;51.324;12.376;2022-11-15T12:36:03;14.80;99.90
15888;DHT22;56032;51.324;12.376;2022-11-15T12:38:54;14.80;99.90
15888;DHT22;56032;51.324;12.376;2022-11-15T12:41:24;14.80;99.90
15888;DHT22;56032;51.324;12.376;2022-11-15T12:43:53;14.80;99.90
15888;DHT22;56032;51.324;12.376;2022-11-15T12:46:33;14.80;99.90
15888;DHT22;56032;51.324;12.376;2022-11-15T12:49:24;14.90;99.90
15888;DHT22;56032;51.324;12.376;2022-11-15T12:52:05;14.90;99.90
15888;DHT22;56032;51.324;12.376;2022-11-15T12:57:31;15.00;99.90
15888;DHT22;56032;51.324;12.376;2022-11-15T13:00:00;15.10;99.90
15888;DHT22;56032;51.324;12.376;2022-11-15T13:02:31;15.10;99.90
15888;DHT22;56032;51.324;12.376;2022-11-15T13:07:57;15.10;99.90
15888;DHT22;56032;51.324;12.376;2022-11-15T13:10:29;15.10;99.90
15888;DHT22;56032;51.324;12.376;2022-11-15T13:13:00;15.10;99.90
15888;DHT22;56032;51.324;12.376;2022-11-15T13:15:40;15.20;99.90
15888;DHT22;56032;51.324;12.376;2022-11-15T13:18:31;15.20;99.90
15888;DHT22;56032;51.324;12.376;2022-11-15T13:21:01;15.30;99.90
15888;DHT22;56032;51.324;12.376;2022-11-15T13:23:51;15.30;99.90
15888;DHT22;56032;51.324;12.376;2022-11-15T13:26:38;15.30;99.90
15888;DHT22;56032;51.324;12.376;2022-11-15T13:31:55;15.20;99.90
15888;DHT22;56032;51.324;12.376;2022-11-15T13:34:27;15.30;99.90
15888;DHT22;56032;51.324;12.376;2022-11-15T13:37:27;15.30;99.90
15888;DHT22;56032;51.324;12.376;2022-11-15T13:39:57;15.10;99.90
15888;DHT22;56032;51.324;12.376;2022-11-15T13:42:37;15.10;99.90
15888;DHT22;56032;51.324;12.376;2022-11-15T13:45:13;15.10;99.90
15888;DHT22;56032;51.324;12.376;2022-11-15T13:47:43;15.20;99.90
15888;DHT22;56032;51.324;12.376;2022-11-15T13:50:11;15.20;99.90
15888;DHT22;56032;51.324;12.376;2022-11-15T13:52:40;15.20;99.90
15888;DHT22;56032;51.324;12.376;2022-11-15T13:55:11;15.20;99.90
15888;DHT22;56032;51.324;12.376;2022-11-15T13:57:41;15.20;99.90
15888;DHT22;56032;51.324;12.376;2022-11-15T14:00:24;15.20;99.90
15888;DHT22;56032;51.324;12.376;2022-11-15T14:02:55;15.20;99.90
15888;DHT22;56032;51.324;12.376;2022-11-15T14:05:25;15.20;99.90
15888;DHT22;56032;51.324;12.376;2022-11-15T14:07:55;15.10;99.90
15888;DHT22;56032;51.324;12.376;2022-11-15T14:10:27;15.00;99.90
15888;DHT22;56032;51.324;12.376;2022-11-15T14:12:56;14.90;99.90
15888;DHT22;56032;51.324;12.376;2022-11-15T14:15:27;14.90;99.90
15888;DHT22;56032;51.324;12.376;2022-11-15T14:17:57;14.90;99.90
15888;DHT22;56032;51.324;12.376;2022-11-15T14:20:27;14.90;99.90
15888;DHT22;56032;51.324;12.376;2022-11-15T14:23:03;14.80;99.90
15888;DHT22;56032;51.324;12.376;2022-11-15T14:25:33;14.80;99.90
15888;DHT22;56032;51.324;12.376;2022-11-15T14:28:15;14.70;99.90
15888;DHT22;56032;51.324;12.376;2022-11-15T14:30:44;14.70;99.90
15888;DHT22;56032;51.324;12.376;2022-11-15T14:33:19;14.60;99.90
15888;DHT22;56032;51.324;12.376;2022-11-15T14:35:48;14.50;99.90
15888;DHT22;56032;51.324;12.376;2022-11-15T14:38:17;14.40;99.90
15888;DHT22;56032;51.324;12.376;2022-11-15T14:40:45;14.30;99.90
15888;DHT22;56032;51.324;12.376;2022-11-15T14:43:14;14.20;99.90
15888;DHT22;56032;51.324;12.376;2022-11-15T14:45:44;14.20;99.90
15888;DHT22;56032;51.324;12.376;2022-11-15T14:48:13;14.20;99.90
15888;DHT22;56032;51.324;12.376;2022-11-15T14:50:45;14.10;99.90
15888;DHT22;56032;51.324;12.376;2022-11-15T14:53:13;14.10;99.90
15888;DHT22;56032;51.324;12.376;2022-11-15T14:55:43;14.00;99.90
15888;DHT22;56032;51.324;12.376;2022-11-15T14:58:11;14.00;99.90
15888;DHT22;56032;51.324;12.376;2022-11-15T15:00:40;13.90;99.90
15888;DHT22;56032;51.324;12.376;2022-11-15T15:03:09;13.80;99.90
15888;DHT22;56032;51.324;12.376;2022-11-15T15:05:38;13.80;99.90
15888;DHT22;56032;51.324;12.376;2022-11-15T15:08:08;13.70;99.90
15888;DHT22;56032;51.324;12.376;2022-11-15T15:10:38;13.70;99.90
15888;DHT22;56032;51.324;12.376;2022-11-15T15:13:10;13.60;99.90
15888;DHT22;56032;51.324;12.376;2022-11-15T15:15:42;13.60;99.90
15888;DHT22;56032;51.324;12.376;2022-11-15T15:18:11;13.50;99.90
15888;DHT22;56032;51.324;12.376;2022-11-15T15:20:40;13.50;99.90
15888;DHT22;56032;51.324;12.376;2022-11-15T15:23:12;13.50;99.90
15888;DHT22;56032;51.324;12.376;2022-11-15T15:25:42;13.40;99.90
15888;DHT22;56032;51.324;12.376;2022-11-15T15:28:12;13.40;99.90
15888;DHT22;56032;51.324;12.376;2022-11-15T15:30:40;13.30;99.90
15888;DHT22;56032;51.324;12.376;2022-11-15T15:33:09;13.30;99.90
15888;DHT22;56032;51.324;12.376;2022-11-15T15:35:37;13.20;99.90
15888;DHT22;56032;51.324;12.376;2022-11-15T15:38:06;13.20;99.90
15888;DHT22;56032;51.324;12.376;2022-11-15T15:40:36;13.10;99.90
15888;DHT22;56032;51.324;12.376;2022-11-15T15:43:04;13.10;99.90
15888;DHT22;56032;51.324;12.376;2022-11-15T15:45:36;13.10;99.90
15888;DHT22;56032;51.324;12.376;2022-11-15T15:48:07;13.00;99.90
15888;DHT22;56032;51.324;12.376;2022-11-15T15:50:36;12.90;99.90
15888;DHT22;56032;51.324;12.376;2022-11-15T15:53:05;12.90;99.90
15888;DHT22;56032;51.324;12.376;2022-11-15T15:55:36;12.90;99.90
15888;DHT22;56032;51.324;12.376;2022-11-15T15:58:04;12.90;99.90
15888;DHT22;56032;51.324;12.376;2022-11-15T16:00:33;12.90;99.90
15888;DHT22;56032;51.324;12.376;2022-11-15T16:03:03;12.90;99.90
15888;DHT22;56032;51.324;12.376;2022-11-15T16:05:31;12.90;99.90
15888;DHT22;56032;51.324;12.376;2022-11-15T16:07:59;12.90;99.90